sensor_id;sensor_type;location;lat;lon;timestamp;pressure;altitude;pressure_sealevel;temperature;humidity
82555;BME280;72219;48.186;11.554;2023-12-28T00:01:47;95966.47;;;14.78;45.73
82555;BME280;72219;48.186;11.554;2023-12-28T00:04:12;95957.34;;;14.74;46.01
82555;BME280;72219;48.186;11.554;2023-12-28T00:06:37;95966.47;;;14.70;45.89
82555;BME280;72219;48.186;11.554;2023-12-28T00:09:03;95943.44;;;14.57;46.11
82555;BME280;72219;48.186;11.554;2023-12-28T00:11:29;95966.97;;;14.74;46.00
82555;BME280;72219;48.186;11.554;2023-12-28T00:13:54;95959.16;;;14.74;45.85
82555;BME280;72219;48.186;11.554;2023-12-28T00:16:19;95956.56;;;14.74;46.25
82555;BME280;72219;48.186;11.554;2023-12-28T00:18:45;95959.16;;;14.74;45.93
82555;BME280;72219;48.186;11.554;2023-12-28T00:21:11;95955.22;;;14.70;45.81
82555;BME280;72219;48.186;11.554;2023-12-28T00:23:37;95961.41;;;14.69;45.93
82555;BME280;72219;48.186;11.554;2023-12-28T00:26:02;95954.41;;;14.69;46.14
82555;BME280;72219;48.186;11.554;2023-12-28T00:28:28;95966.63;;;14.69;45.89
82555;BME280;72219;48.186;11.554;2023-12-28T00:30:53;95963.69;;;14.72;45.96
82555;BME280;72219;48.186;11.554;2023-12-28T00:33:18;95962.53;;;14.66;46.00
82555;BME280;72219;48.186;11.554;2023-12-28T00:35:44;95949.34;;;14.68;45.98
82555;BME280;72219;48.186;11.554;2023-12-28T00:38:09;95941.16;;;14.62;45.85
82555;BME280;72219;48.186;11.554;2023-12-28T00:40:34;95956.69;;;14.72;45.87
82555;BME280;72219;48.186;11.554;2023-12-28T00:43:01;95941.34;;;14.61;46.12
82555;BME280;72219;48.186;11.554;2023-12-28T00:45:26;95941.88;;;14.65;45.72
82555;BME280;72219;48.186;11.554;2023-12-28T00:47:51;95953.28;;;14.72;45.91
82555;BME280;72219;48.186;11.554;2023-12-28T00:50:20;95958.47;;;14.72;45.84
82555;BME280;72219;48.186;11.554;2023-12-28T00:52:47;95951.97;;;14.68;45.98
82555;BME280;72219;48.186;11.554;2023-12-28T00:55:12;95971.34;;;14.73;45.90
82555;BME280;72219;48.186;11.554;2023-12-28T00:57:37;95967.59;;;14.68;45.44
82555;BME280;72219;48.186;11.554;2023-12-28T01:00:03;95964.31;;;14.66;46.19
82555;BME280;72219;48.186;11.554;2023-12-28T01:02:29;95972.13;;;14.66;46.07
82555;BME280;72219;48.186;11.554;2023-12-28T01:04:54;95958.88;;;14.59;45.73
82555;BME280;72219;48.186;11.554;2023-12-28T01:07:20;95972.41;;;14.62;46.02
82555;BME280;72219;48.186;11.554;2023-12-28T01:09:45;95977.34;;;14.66;46.05
82555;BME280;72219;48.186;11.554;2023-12-28T01:12:11;95976.53;;;14.65;45.90
82555;BME280;72219;48.186;11.554;2023-12-28T01:14:36;95978.00;;;14.68;45.80
82555;BME280;72219;48.186;11.554;2023-12-28T01:17:02;95986.78;;;14.67;45.85
82555;BME280;72219;48.186;11.554;2023-12-28T01:19:27;95981.75;;;14.65;45.95
82555;BME280;72219;48.186;11.554;2023-12-28T01:21:52;95996.56;;;14.65;45.85
82555;BME280;72219;48.186;11.554;2023-12-28T01:24:17;96003.56;;;14.72;45.76
82555;BME280;72219;48.186;11.554;2023-12-28T01:26:43;96009.91;;;14.70;46.38
82555;BME280;72219;48.186;11.554;2023-12-28T01:29:08;96005.53;;;14.70;45.77
82555;BME280;72219;48.186;11.554;2023-12-28T01:31:34;96005.97;;;14.66;46.06
82555;BME280;72219;48.186;11.554;2023-12-28T01:34:00;96011.06;;;14.67;46.11
82555;BME280;72219;48.186;11.554;2023-12-28T01:36:25;96009.09;;;14.69;45.83
82555;BME280;72219;48.186;11.554;2023-12-28T01:38:52;96017.72;;;14.70;45.85
82555;BME280;72219;48.186;11.554;2023-12-28T01:41:17;96014.00;;;14.72;45.62
82555;BME280;72219;48.186;11.554;2023-12-28T01:43:43;96007.25;;;14.61;45.76
82555;BME280;72219;48.186;11.554;2023-12-28T01:46:12;96011.34;;;14.64;45.66
82555;BME280;72219;48.186;11.554;2023-12-28T01:48:39;96015.13;;;14.70;45.90
82555;BME280;72219;48.186;11.554;2023-12-28T01:51:06;96004.22;;;14.66;45.86
82555;BME280;72219;48.186;11.554;2023-12-28T01:53:31;95999.97;;;14.65;45.95
82555;BME280;72219;48.186;11.554;2023-12-28T01:55:57;96011.88;;;14.68;45.86
82555;BME280;72219;48.186;11.554;2023-12-28T01:58:23;96013.66;;;14.67;45.72
82555;BME280;72219;48.186;11.554;2023-12-28T02:00:49;96016.75;;;14.71;45.63
82555;BME280;72219;48.186;11.554;2023-12-28T02:03:15;96008.59;;;14.66;45.85
82555;BME280;72219;48.186;11.554;2023-12-28T02:05:41;96009.22;;;14.59;45.83
82555;BME280;72219;48.186;11.554;2023-12-28T02:08:07;96012.44;;;14.61;45.68
82555;BME280;72219;48.186;11.554;2023-12-28T02:10:33;96015.94;;;14.70;45.63
82555;BME280;72219;48.186;11.554;2023-12-28T02:12:58;95998.47;;;14.62;45.73
82555;BME280;72219;48.186;11.554;2023-12-28T02:15:23;96003.38;;;14.66;45.94
82555;BME280;72219;48.186;11.554;2023-12-28T02:18:02;96002.41;;;14.67;45.93
82555;BME280;72219;48.186;11.554;2023-12-28T02:20:32;96001.44;;;14.68;45.68
82555;BME280;72219;48.186;11.554;2023-12-28T02:22:59;96008.47;;;14.67;45.77
82555;BME280;72219;48.186;11.554;2023-12-28T02:25:24;96006.81;;;14.66;45.79
82555;BME280;72219;48.186;11.554;2023-12-28T02:27:50;96009.09;;;14.69;45.43
82555;BME280;72219;48.186;11.554;2023-12-28T02:30:17;96008.59;;;14.66;45.73
82555;BME280;72219;48.186;11.554;2023-12-28T02:33:12;96011.34;;;14.64;45.70
82555;BME280;72219;48.186;11.554;2023-12-28T02:36:03;96003.38;;;14.66;45.84
82555;BME280;72219;48.186;11.554;2023-12-28T02:38:33;96002.41;;;14.67;45.49
82555;BME280;72219;48.186;11.554;2023-12-28T02:41:01;96008.31;;;14.69;45.78
82555;BME280;72219;48.186;11.554;2023-12-28T02:43:27;96008.94;;;14.71;45.74
82555;BME280;72219;48.186;11.554;2023-12-28T02:45:53;96005.69;;;14.69;45.78
82555;BME280;72219;48.186;11.554;2023-12-28T02:48:18;96004.16;;;14.58;45.84
82555;BME280;72219;48.186;11.554;2023-12-28T02:50:44;95999.16;;;14.65;45.77
82555;BME280;72219;48.186;11.554;2023-12-28T02:53:09;96000.66;;;14.67;45.59
82555;BME280;72219;48.186;11.554;2023-12-28T02:55:34;96000.66;;;14.67;45.56
82555;BME280;72219;48.186;11.554;2023-12-28T02:58:00;95983.59;;;14.46;45.71
82555;BME280;72219;48.186;11.554;2023-12-28T03:00:25;96003.25;;;14.67;45.69
82555;BME280;72219;48.186;11.554;2023-12-28T03:02:52;96009.44;;;14.66;45.71
82555;BME280;72219;48.186;11.554;2023-12-28T03:05:17;96008.59;;;14.66;45.31
82555;BME280;72219;48.186;11.554;2023-12-28T03:07:43;96002.03;;;14.61;45.71
82555;BME280;72219;48.186;11.554;2023-12-28T03:10:11;96000.13;;;14.63;45.77
82555;BME280;72219;48.186;11.554;2023-12-28T03:12:36;95999.16;;;14.65;45.78
82555;BME280;72219;48.186;11.554;2023-12-28T03:15:04;95986.72;;;14.58;45.76
82555;BME280;72219;48.186;11.554;2023-12-28T03:17:30;96000.94;;;14.64;45.74
82555;BME280;72219;48.186;11.554;2023-12-28T03:19:56;95998.47;;;14.62;45.55
82555;BME280;72219;48.186;11.554;2023-12-28T03:22:22;95986.91;;;14.57;45.79
82555;BME280;72219;48.186;11.554;2023-12-28T03:24:47;95986.56;;;14.60;45.67
82555;BME280;72219;48.186;11.554;2023-12-28T03:27:14;95998.47;;;14.62;45.52
82555;BME280;72219;48.186;11.554;2023-12-28T03:29:41;95988.03;;;14.62;45.40
82555;BME280;72219;48.186;11.554;2023-12-28T03:32:07;95988.22;;;14.61;45.60
82555;BME280;72219;48.186;11.554;2023-12-28T03:34:32;95990.81;;;14.61;45.97
82555;BME280;72219;48.186;11.554;2023-12-28T03:36:59;95979.59;;;14.60;45.94
82555;BME280;72219;48.186;11.554;2023-12-28T03:39:24;95983.53;;;14.65;45.54
82555;BME280;72219;48.186;11.554;2023-12-28T03:41:51;95969.81;;;14.62;45.74
82555;BME280;72219;48.186;11.554;2023-12-28T03:44:18;95975.50;;;14.58;45.41
82555;BME280;72219;48.186;11.554;2023-12-28T03:46:44;95982.72;;;14.64;45.25
82555;BME280;72219;48.186;11.554;2023-12-28T03:49:10;95982.84;;;14.62;45.41
82555;BME280;72219;48.186;11.554;2023-12-28T03:51:35;95994.28;;;14.70;46.06
82555;BME280;72219;48.186;11.554;2023-12-28T03:54:00;95985.44;;;14.62;45.58
82555;BME280;72219;48.186;11.554;2023-12-28T03:56:27;95988.59;;;14.66;45.56
82555;BME280;72219;48.186;11.554;2023-12-28T03:58:54;95989.72;;;14.63;45.72
82555;BME280;72219;48.186;11.554;2023-12-28T04:01:21;95999.44;;;14.61;45.71
82555;BME280;72219;48.186;11.554;2023-12-28T04:03:47;95999.44;;;14.61;45.58
82555;BME280;72219;48.186;11.554;2023-12-28T04:06:13;96008.59;;;14.66;45.39
82555;BME280;72219;48.186;11.554;2023-12-28T04:08:42;96008.75;;;14.64;45.55
82555;BME280;72219;48.186;11.554;2023-12-28T04:11:08;96007.94;;;14.63;45.52
82555;BME280;72219;48.186;11.554;2023-12-28T04:13:35;96011.19;;;14.66;45.58
82555;BME280;72219;48.186;11.554;2023-12-28T04:16:00;96012.19;;;14.65;45.77
82555;BME280;72219;48.186;11.554;2023-12-28T04:18:26;96017.59;;;14.71;45.50
82555;BME280;72219;48.186;11.554;2023-12-28T04:20:51;96010.22;;;14.67;45.56
82555;BME280;72219;48.186;11.554;2023-12-28T04:23:17;96012.19;;;14.65;45.57
82555;BME280;72219;48.186;11.554;2023-12-28T04:25:42;96016.41;;;14.66;45.37
82555;BME280;72219;48.186;11.554;2023-12-28T04:28:08;96023.41;;;14.65;45.50
82555;BME280;72219;48.186;11.554;2023-12-28T04:30:33;96020.81;;;14.65;45.79
82555;BME280;72219;48.186;11.554;2023-12-28T04:33:00;96017.88;;;14.68;45.33
82555;BME280;72219;48.186;11.554;2023-12-28T04:35:26;96020.00;;;14.65;45.26
82555;BME280;72219;48.186;11.554;2023-12-28T04:37:51;96016.19;;;14.59;45.62
82555;BME280;72219;48.186;11.554;2023-12-28T04:40:16;96027.16;;;14.71;45.46
82555;BME280;72219;48.186;11.554;2023-12-28T04:42:43;96005.59;;;14.52;45.81
82555;BME280;72219;48.186;11.554;2023-12-28T04:45:09;96021.47;;;14.67;45.38
82555;BME280;72219;48.186;11.554;2023-12-28T04:47:37;96023.56;;;14.63;45.63
82555;BME280;72219;48.186;11.554;2023-12-28T04:50:06;96014.56;;;14.58;45.49
82555;BME280;72219;48.186;11.554;2023-12-28T04:52:32;96031.38;;;14.63;45.59
82555;BME280;72219;48.186;11.554;2023-12-28T04:54:58;96020.81;;;14.65;45.64
82555;BME280;72219;48.186;11.554;2023-12-28T04:57:24;96024.22;;;14.66;45.58
82555;BME280;72219;48.186;11.554;2023-12-28T04:59:51;96019.69;;;14.68;45.43
82555;BME280;72219;48.186;11.554;2023-12-28T05:02:16;96020.50;;;14.68;45.34
82555;BME280;72219;48.186;11.554;2023-12-28T05:04:42;96020.00;;;14.65;45.84
82555;BME280;72219;48.186;11.554;2023-12-28T05:07:07;96027.81;;;14.65;45.35
82555;BME280;72219;48.186;11.554;2023-12-28T05:09:34;96032.69;;;14.68;45.42
82555;BME280;72219;48.186;11.554;2023-12-28T05:11:59;96019.63;;;14.59;45.57
82555;BME280;72219;48.186;11.554;2023-12-28T05:14:25;96022.88;;;14.61;45.58
82555;BME280;72219;48.186;11.554;2023-12-28T05:16:50;96036.59;;;14.63;45.30
82555;BME280;72219;48.186;11.554;2023-12-28T05:19:16;96046.47;;;14.60;45.47
82555;BME280;72219;48.186;11.554;2023-12-28T05:21:44;96051.91;;;14.67;45.48
82555;BME280;72219;48.186;11.554;2023-12-28T05:24:09;96051.91;;;14.67;45.34
82555;BME280;72219;48.186;11.554;2023-12-28T05:26:34;96043.72;;;14.61;45.45
82555;BME280;72219;48.186;11.554;2023-12-28T05:29:01;96047.94;;;14.62;45.41
82555;BME280;72219;48.186;11.554;2023-12-28T05:31:27;96056.16;;;14.68;45.29
82555;BME280;72219;48.186;11.554;2023-12-28T05:33:52;96038.66;;;14.60;45.29
82555;BME280;72219;48.186;11.554;2023-12-28T05:36:18;96045.88;;;14.66;45.42
82555;BME280;72219;48.186;11.554;2023-12-28T05:38:44;96042.44;;;14.66;45.67
82555;BME280;72219;48.186;11.554;2023-12-28T05:41:10;96046.84;;;14.65;45.49
82555;BME280;72219;48.186;11.554;2023-12-28T05:43:37;96043.94;;;14.68;45.22
82555;BME280;72219;48.186;11.554;2023-12-28T05:46:02;96043.44;;;14.65;45.17
82555;BME280;72219;48.186;11.554;2023-12-28T05:48:28;96042.59;;;14.64;45.52
82555;BME280;72219;48.186;11.554;2023-12-28T05:50:53;96051.09;;;14.66;45.46
82555;BME280;72219;48.186;11.554;2023-12-28T05:53:19;96058.06;;;14.66;45.29
82555;BME280;72219;48.186;11.554;2023-12-28T05:55:45;96063.97;;;14.68;45.26
82555;BME280;72219;48.186;11.554;2023-12-28T05:58:11;96040.63;;;14.58;45.33
82555;BME280;72219;48.186;11.554;2023-12-28T06:00:36;96045.34;;;14.62;45.19
82555;BME280;72219;48.186;11.554;2023-12-28T06:03:02;96043.44;;;14.65;45.12
82555;BME280;72219;48.186;11.554;2023-12-28T06:05:28;96041.25;;;14.60;45.50
82555;BME280;72219;48.186;11.554;2023-12-28T06:07:53;96046.63;;;14.58;44.97
82555;BME280;72219;48.186;11.554;2023-12-28T06:10:19;96042.91;;;14.61;45.41
82555;BME280;72219;48.186;11.554;2023-12-28T06:12:44;96042.97;;;14.69;45.43
82555;BME280;72219;48.186;11.554;2023-12-28T06:15:10;96044.25;;;14.65;45.30
82555;BME280;72219;48.186;11.554;2023-12-28T06:17:35;96053.22;;;14.71;45.08
82555;BME280;72219;48.186;11.554;2023-12-28T06:20:01;96046.38;;;14.70;45.13
82555;BME280;72219;48.186;11.554;2023-12-28T06:22:27;96041.00;;;14.63;45.33
82555;BME280;72219;48.186;11.554;2023-12-28T06:24:56;96041.66;;;14.65;45.37
82555;BME280;72219;48.186;11.554;2023-12-28T06:27:22;96051.25;;;14.65;45.37
82555;BME280;72219;48.186;11.554;2023-12-28T06:29:50;96015.84;;;14.45;45.22
82555;BME280;72219;48.186;11.554;2023-12-28T06:32:16;96029.69;;;14.54;45.25
82555;BME280;72219;48.186;11.554;2023-12-28T06:34:41;96041.00;;;14.63;45.26
82555;BME280;72219;48.186;11.554;2023-12-28T06:37:06;96048.97;;;14.70;45.20
82555;BME280;72219;48.186;11.554;2023-12-28T06:39:33;96048.16;;;14.69;45.53
82555;BME280;72219;48.186;11.554;2023-12-28T06:42:00;96040.28;;;14.61;45.27
82555;BME280;72219;48.186;11.554;2023-12-28T06:44:25;96046.03;;;14.65;45.22
82555;BME280;72219;48.186;11.554;2023-12-28T06:46:52;96052.34;;;14.62;45.37
82555;BME280;72219;48.186;11.554;2023-12-28T06:49:20;96039.50;;;14.60;45.37
82555;BME280;72219;48.186;11.554;2023-12-28T06:51:45;96054.50;;;14.67;45.34
82555;BME280;72219;48.186;11.554;2023-12-28T06:54:11;96051.91;;;14.67;45.20
82555;BME280;72219;48.186;11.554;2023-12-28T06:56:37;96055.34;;;14.67;45.12
82555;BME280;72219;48.186;11.554;2023-12-28T06:59:02;96040.09;;;14.54;45.06
82555;BME280;72219;48.186;11.554;2023-12-28T07:01:28;96047.66;;;14.66;44.78
82555;BME280;72219;48.186;11.554;2023-12-28T07:03:53;96045.22;;;14.64;45.15
82555;BME280;72219;48.186;11.554;2023-12-28T07:06:19;96046.72;;;14.75;45.11
82555;BME280;72219;48.186;11.554;2023-12-28T07:08:44;96047.72;;;14.74;45.12
82555;BME280;72219;48.186;11.554;2023-12-28T07:11:10;96050.16;;;14.75;45.24
82555;BME280;72219;48.186;11.554;2023-12-28T07:13:36;96050.16;;;14.75;44.82
82555;BME280;72219;48.186;11.554;2023-12-28T07:16:02;96045.75;;;14.76;45.14
82555;BME280;72219;48.186;11.554;2023-12-28T07:18:28;96044.59;;;14.70;45.18
82555;BME280;72219;48.186;11.554;2023-12-28T07:20:53;96046.72;;;14.75;44.98
82555;BME280;72219;48.186;11.554;2023-12-28T07:23:19;96046.44;;;14.78;44.95
82555;BME280;72219;48.186;11.554;2023-12-28T07:25:44;96042.19;;;14.77;44.56
82555;BME280;72219;48.186;11.554;2023-12-28T07:28:10;96040.03;;;14.72;44.80
82555;BME280;72219;48.186;11.554;2023-12-28T07:30:36;96040.91;;;14.81;44.80
82555;BME280;72219;48.186;11.554;2023-12-28T07:33:02;96042.06;;;14.87;44.90
82555;BME280;72219;48.186;11.554;2023-12-28T07:35:28;96030.28;;;14.74;45.05
82555;BME280;72219;48.186;11.554;2023-12-28T07:37:54;96048.75;;;14.89;44.53
82555;BME280;72219;48.186;11.554;2023-12-28T07:40:19;96053.47;;;14.94;44.38
82555;BME280;72219;48.186;11.554;2023-12-28T07:42:45;96051.00;;;14.92;44.54
82555;BME280;72219;48.186;11.554;2023-12-28T07:45:10;96050.41;;;14.99;44.54
82555;BME280;72219;48.186;11.554;2023-12-28T07:47:36;96057.53;;;14.96;44.43
82555;BME280;72219;48.186;11.554;2023-12-28T07:50:01;96068.00;;;15.05;44.28
82555;BME280;72219;48.186;11.554;2023-12-28T07:52:27;96062.66;;;15.06;44.56
82555;BME280;72219;48.186;11.554;2023-12-28T07:54:54;96055.28;;;15.02;44.16
82555;BME280;72219;48.186;11.554;2023-12-28T07:57:20;96055.97;;;15.12;44.19
82555;BME280;72219;48.186;11.554;2023-12-28T07:59:45;96065.72;;;15.10;44.45
82555;BME280;72219;48.186;11.554;2023-12-28T08:02:10;96062.81;;;15.13;44.30
82555;BME280;72219;48.186;11.554;2023-12-28T08:04:36;96072.25;;;15.14;43.92
82555;BME280;72219;48.186;11.554;2023-12-28T08:07:01;96074.06;;;15.22;43.80
82555;BME280;72219;48.186;11.554;2023-12-28T08:09:26;96072.28;;;15.22;43.85
82555;BME280;72219;48.186;11.554;2023-12-28T08:11:52;96065.75;;;15.18;43.67
82555;BME280;72219;48.186;11.554;2023-12-28T08:14:17;96070.50;;;15.23;43.56
82555;BME280;72219;48.186;11.554;2023-12-28T08:16:43;96073.91;;;15.23;43.77
82555;BME280;72219;48.186;11.554;2023-12-28T08:19:08;96081.28;;;15.28;43.68
82555;BME280;72219;48.186;11.554;2023-12-28T08:21:33;96081.41;;;15.26;43.50
82555;BME280;72219;48.186;11.554;2023-12-28T08:23:58;96087.13;;;15.30;43.47
82555;BME280;72219;48.186;11.554;2023-12-28T08:26:24;96095.78;;;15.30;43.62
82555;BME280;72219;48.186;11.554;2023-12-28T08:28:49;96069.19;;;15.27;43.40
82555;BME280;72219;48.186;11.554;2023-12-28T08:31:14;96071.66;;;15.37;42.94
82555;BME280;72219;48.186;11.554;2023-12-28T08:33:40;96094.66;;;15.41;43.28
82555;BME280;72219;48.186;11.554;2023-12-28T08:36:09;96086.69;;;15.43;42.93
82555;BME280;72219;48.186;11.554;2023-12-28T08:38:35;96086.84;;;15.58;42.86
82555;BME280;72219;48.186;11.554;2023-12-28T08:41:00;96090.09;;;15.60;42.65
82555;BME280;72219;48.186;11.554;2023-12-28T08:43:28;96090.59;;;15.55;42.99
82555;BME280;72219;48.186;11.554;2023-12-28T08:45:55;96088.63;;;15.49;42.60
82555;BME280;72219;48.186;11.554;2023-12-28T08:48:20;96089.75;;;15.46;42.94
82555;BME280;72219;48.186;11.554;2023-12-28T08:50:46;96093.50;;;15.44;42.97
82555;BME280;72219;48.186;11.554;2023-12-28T08:53:11;96089.63;;;15.56;42.25
82555;BME280;72219;48.186;11.554;2023-12-28T08:55:37;96089.94;;;15.53;42.67
82555;BME280;72219;48.186;11.554;2023-12-28T08:58:02;96093.84;;;15.57;42.27
82555;BME280;72219;48.186;11.554;2023-12-28T09:00:28;96096.16;;;15.60;42.31
82555;BME280;72219;48.186;11.554;2023-12-28T09:02:53;96093.84;;;15.57;42.25
82555;BME280;72219;48.186;11.554;2023-12-28T09:05:19;96091.56;;;15.62;42.48
82555;BME280;72219;48.186;11.554;2023-12-28T09:07:44;96094.84;;;15.64;42.46
82555;BME280;72219;48.186;11.554;2023-12-28T09:10:10;96089.63;;;15.56;42.67
82555;BME280;72219;48.186;11.554;2023-12-28T09:12:36;96091.28;;;15.66;42.10
82555;BME280;72219;48.186;11.554;2023-12-28T09:15:03;96091.91;;;15.76;42.11
82555;BME280;72219;48.186;11.554;2023-12-28T09:17:28;96074.63;;;15.58;40.91
82555;BME280;72219;48.186;11.554;2023-12-28T09:19:54;96082.31;;;15.76;41.02
82555;BME280;72219;48.186;11.554;2023-12-28T09:22:19;96090.97;;;15.85;40.65
82555;BME280;72219;48.186;11.554;2023-12-28T09:24:45;96088.53;;;15.84;40.79
82555;BME280;72219;48.186;11.554;2023-12-28T09:27:10;96097.84;;;15.94;40.97
82555;BME280;72219;48.186;11.554;2023-12-28T09:29:37;96081.66;;;15.99;41.13
82555;BME280;72219;48.186;11.554;2023-12-28T09:32:02;96084.78;;;16.03;41.26
82555;BME280;72219;48.186;11.554;2023-12-28T09:34:28;96077.28;;;16.08;41.70
82555;BME280;72219;48.186;11.554;2023-12-28T09:36:53;96083.97;;;16.02;41.49
82555;BME280;72219;48.186;11.554;2023-12-28T09:39:18;96073.84;;;15.99;41.73
82555;BME280;72219;48.186;11.554;2023-12-28T09:41:49;96084.13;;;16.09;41.53
82555;BME280;72219;48.186;11.554;2023-12-28T09:44:18;96074.16;;;16.12;41.18
82555;BME280;72219;48.186;11.554;2023-12-28T09:46:44;96079.84;;;16.24;41.14
82555;BME280;72219;48.186;11.554;2023-12-28T09:49:11;96087.06;;;16.22;41.15
82555;BME280;72219;48.186;11.554;2023-12-28T09:51:36;96083.94;;;16.27;41.39
82555;BME280;72219;48.186;11.554;2023-12-28T09:54:05;96076.75;;;16.21;41.72
82555;BME280;72219;48.186;11.554;2023-12-28T09:56:32;96080.19;;;16.29;41.35
82555;BME280;72219;48.186;11.554;2023-12-28T09:58:59;96082.13;;;16.27;41.66
82555;BME280;72219;48.186;11.554;2023-12-28T10:01:26;96090.44;;;16.31;41.98
82555;BME280;72219;48.186;11.554;2023-12-28T10:03:51;96085.72;;;16.35;41.86
82555;BME280;72219;48.186;11.554;2023-12-28T10:06:17;96075.09;;;16.36;42.12
82555;BME280;72219;48.186;11.554;2023-12-28T10:08:46;96068.59;;;16.32;41.78
82555;BME280;72219;48.186;11.554;2023-12-28T10:11:18;96080.81;;;16.40;42.11
82555;BME280;72219;48.186;11.554;2023-12-28T10:13:45;96065.63;;;16.35;42.02
82555;BME280;72219;48.186;11.554;2023-12-28T10:16:11;96081.13;;;16.45;42.38
82555;BME280;72219;48.186;11.554;2023-12-28T10:18:41;96088.59;;;16.56;42.02
82555;BME280;72219;48.186;11.554;2023-12-28T10:21:08;96074.72;;;16.56;41.94
82555;BME280;72219;48.186;11.554;2023-12-28T10:23:33;96077.66;;;16.61;41.86
82555;BME280;72219;48.186;11.554;2023-12-28T10:25:59;96063.47;;;16.55;41.81
82555;BME280;72219;48.186;11.554;2023-12-28T10:28:25;96063.75;;;16.69;42.48
82555;BME280;72219;48.186;11.554;2023-12-28T10:30:54;96069.78;;;16.69;42.29
82555;BME280;72219;48.186;11.554;2023-12-28T10:33:22;96068.63;;;16.72;42.02
82555;BME280;72219;48.186;11.554;2023-12-28T10:35:52;96032.44;;;16.60;42.43
82555;BME280;72219;48.186;11.554;2023-12-28T10:38:18;96037.47;;;16.62;41.98
82555;BME280;72219;48.186;11.554;2023-12-28T10:40:45;96045.78;;;16.74;42.78
82555;BME280;72219;48.186;11.554;2023-12-28T10:43:13;96049.97;;;16.83;42.67
82555;BME280;72219;48.186;11.554;2023-12-28T10:45:41;96042.78;;;16.85;42.88
82555;BME280;72219;48.186;11.554;2023-12-28T10:48:10;96044.09;;;16.89;42.54
82555;BME280;72219;48.186;11.554;2023-12-28T10:50:43;96043.09;;;16.90;42.68
82555;BME280;72219;48.186;11.554;2023-12-28T10:53:51;96047.19;;;16.93;42.58
82555;BME280;72219;48.186;11.554;2023-12-28T10:56:46;96047.66;;;16.96;42.50
82555;BME280;72219;48.186;11.554;2023-12-28T11:01:42;96045.31;;;17.02;42.47
82555;BME280;72219;48.186;11.554;2023-12-28T11:06:37;96027.69;;;17.04;42.49
82555;BME280;72219;48.186;11.554;2023-12-28T11:09:04;96013.50;;;16.98;42.31
82555;BME280;72219;48.186;11.554;2023-12-28T11:11:31;96029.28;;;17.13;42.15
82555;BME280;72219;48.186;11.554;2023-12-28T11:13:59;96022.75;;;17.09;42.58
82555;BME280;72219;48.186;11.554;2023-12-28T11:16:25;96003.69;;;17.00;42.27
82555;BME280;72219;48.186;11.554;2023-12-28T11:18:53;96022.22;;;17.13;42.36
82555;BME280;72219;48.186;11.554;2023-12-28T11:21:20;96015.50;;;17.19;42.30
82555;BME280;72219;48.186;11.554;2023-12-28T11:23:46;96014.00;;;17.25;42.27
82555;BME280;72219;48.186;11.554;2023-12-28T11:26:17;96017.78;;;17.22;42.83
82555;BME280;72219;48.186;11.554;2023-12-28T11:28:43;96009.28;;;17.20;42.31
82555;BME280;72219;48.186;11.554;2023-12-28T11:31:17;96001.25;;;17.22;42.50
82555;BME280;72219;48.186;11.554;2023-12-28T11:33:47;96002.72;;;17.24;42.37
82555;BME280;72219;48.186;11.554;2023-12-28T11:36:22;96005.09;;;17.34;42.70
82555;BME280;72219;48.186;11.554;2023-12-28T11:38:50;95998.69;;;17.37;42.37
82555;BME280;72219;48.186;11.554;2023-12-28T11:41:20;95986.28;;;17.39;42.11
82555;BME280;72219;48.186;11.554;2023-12-28T11:43:52;95985.63;;;17.37;42.37
82555;BME280;72219;48.186;11.554;2023-12-28T11:46:21;95977.25;;;17.41;42.43
82555;BME280;72219;48.186;11.554;2023-12-28T11:48:47;95974.28;;;17.44;42.03
82555;BME280;72219;48.186;11.554;2023-12-28T11:51:12;95980.44;;;17.52;41.73
82555;BME280;72219;48.186;11.554;2023-12-28T11:53:38;95984.06;;;17.51;42.35
82555;BME280;72219;48.186;11.554;2023-12-28T11:56:03;95976.53;;;17.47;42.18
82555;BME280;72219;48.186;11.554;2023-12-28T11:58:30;95973.81;;;17.41;42.03
82555;BME280;72219;48.186;11.554;2023-12-28T12:00:55;95986.81;;;17.49;43.01
82555;BME280;72219;48.186;11.554;2023-12-28T12:03:21;95979.41;;;17.38;42.43
82555;BME280;72219;48.186;11.554;2023-12-28T12:05:46;95996.50;;;17.48;42.12
82555;BME280;72219;48.186;11.554;2023-12-28T12:08:11;95993.06;;;17.48;42.41
82555;BME280;72219;48.186;11.554;2023-12-28T12:10:42;96000.25;;;17.46;42.83
82555;BME280;72219;48.186;11.554;2023-12-28T12:13:09;95986.63;;;17.36;42.69
82555;BME280;72219;48.186;11.554;2023-12-28T12:15:35;95986.56;;;17.44;42.52
82555;BME280;72219;48.186;11.554;2023-12-28T12:18:03;95987.53;;;17.43;42.74
82555;BME280;72219;48.186;11.554;2023-12-28T12:20:30;95983.47;;;17.40;42.83
82555;BME280;72219;48.186;11.554;2023-12-28T12:22:59;95978.72;;;17.44;42.68
82555;BME280;72219;48.186;11.554;2023-12-28T12:25:25;95975.09;;;17.45;42.53
82555;BME280;72219;48.186;11.554;2023-12-28T12:27:51;95974.66;;;17.41;42.95
82555;BME280;72219;48.186;11.554;2023-12-28T12:30:16;95974.47;;;17.43;43.05
82555;BME280;72219;48.186;11.554;2023-12-28T12:32:42;95969.59;;;17.40;43.27
82555;BME280;72219;48.186;11.554;2023-12-28T12:35:11;95958.63;;;17.21;44.20
82555;BME280;72219;48.186;11.554;2023-12-28T12:37:37;95968.81;;;17.31;44.69
82555;BME280;72219;48.186;11.554;2023-12-28T12:40:04;95969.59;;;17.40;44.05
82555;BME280;72219;48.186;11.554;2023-12-28T12:42:31;95956.22;;;17.35;43.64
82555;BME280;72219;48.186;11.554;2023-12-28T12:44:58;95964.28;;;17.48;43.25
82555;BME280;72219;48.186;11.554;2023-12-28T12:47:25;95971.25;;;17.56;42.88
82555;BME280;72219;48.186;11.554;2023-12-28T12:49:55;95968.38;;;17.51;42.89
82555;BME280;72219;48.186;11.554;2023-12-28T12:52:21;95962.28;;;17.50;43.01